createdAt,value
2019-03-21T00:00:03.329Z,-75
2019-03-21T00:01:03.336Z,-75
2019-03-21T00:02:03.314Z,-75
2019-03-21T00:03:03.407Z,-76
2019-03-21T00:04:03.304Z,-76
2019-03-21T00:05:03.382Z,-74
2019-03-21T00:06:03.372Z,-74
2019-03-21T00:07:03.360Z,-74
2019-03-21T00:08:03.415Z,-77
2019-03-21T00:09:03.414Z,-77
2019-03-21T00:10:03.448Z,-74
2019-03-21T00:11:03.354Z,-76
2019-03-21T00:12:03.329Z,-74
2019-03-21T00:13:03.421Z,-76
2019-03-21T00:14:07.679Z,-76
2019-03-21T00:15:03.379Z,-77
2019-03-21T00:16:03.313Z,-76
2019-03-21T00:17:03.346Z,-76
2019-03-21T00:18:03.295Z,-77
2019-03-21T00:19:03.311Z,-77
2019-03-21T00:20:03.373Z,-77
2019-03-21T00:21:03.295Z,-77
2019-03-21T00:22:03.289Z,-76
2019-03-21T00:23:03.276Z,-76
2019-03-21T00:24:03.341Z,-77
2019-03-21T00:25:03.294Z,-75
2019-03-21T00:26:03.254Z,-75
2019-03-21T00:27:03.283Z,-76
2019-03-21T00:28:03.259Z,-78
2019-03-21T00:29:03.475Z,-78
2019-03-21T00:30:03.258Z,-78
2019-03-21T00:31:03.352Z,-76
2019-03-21T00:32:03.507Z,-74
2019-03-21T00:33:03.291Z,-75
2019-03-21T00:34:03.382Z,-75
2019-03-21T00:35:03.300Z,-76
2019-03-21T00:36:03.332Z,-77
2019-03-21T00:37:03.287Z,-78
2019-03-21T00:38:03.299Z,-76
2019-03-21T00:39:03.350Z,-76
2019-03-21T00:40:03.291Z,-76
2019-03-21T00:41:03.349Z,-77
2019-03-21T00:42:03.255Z,-78
2019-03-21T00:43:03.379Z,-77
2019-03-21T00:44:03.240Z,-76
2019-03-21T00:45:03.251Z,-77
2019-03-21T00:46:03.281Z,-76
2019-03-21T00:47:03.251Z,-77
2019-03-21T00:48:03.271Z,-77
2019-03-21T00:49:03.419Z,-76
2019-03-21T00:50:03.229Z,-75
2019-03-21T00:51:03.254Z,-76
2019-03-21T00:52:03.224Z,-74
2019-03-21T00:53:03.337Z,-74
2019-03-21T00:54:03.340Z,-73
2019-03-21T00:55:03.227Z,-78
2019-03-21T00:56:03.308Z,-76
2019-03-21T00:57:03.235Z,-77
2019-03-21T00:58:03.231Z,-77
2019-03-21T00:59:03.213Z,-76
2019-03-21T01:00:03.267Z,-77
2019-03-21T01:01:03.308Z,-77
2019-03-21T01:02:03.187Z,-75
2019-03-21T01:03:04.253Z,-74
2019-03-21T01:04:03.237Z,-76
2019-03-21T01:05:03.258Z,-75
2019-03-21T01:06:03.259Z,-76
2019-03-21T01:07:03.243Z,-76
2019-03-21T01:08:03.197Z,-78
2019-03-21T01:09:03.212Z,-75
2019-03-21T01:10:03.272Z,-75
2019-03-21T01:11:03.215Z,-75
2019-03-21T01:12:03.241Z,-74
2019-03-21T01:13:03.255Z,-75
2019-03-21T01:14:03.193Z,-74
2019-03-21T01:15:03.308Z,-72
2019-03-21T01:16:03.187Z,-70
2019-03-21T01:17:03.165Z,-74
2019-03-21T01:18:03.217Z,-74
2019-03-21T01:19:03.209Z,-71
2019-03-21T01:20:03.484Z,-72
2019-03-21T01:21:03.206Z,-72
2019-03-21T01:22:03.221Z,-73
2019-03-21T01:23:03.195Z,-74
2019-03-21T01:24:03.217Z,-71
2019-03-21T01:25:03.208Z,-73
2019-03-21T01:26:03.178Z,-73
2019-03-21T01:27:03.164Z,-72
2019-03-21T01:28:03.176Z,-70
2019-03-21T01:29:03.301Z,-71
2019-03-21T01:30:03.187Z,-77
2019-03-21T01:31:03.168Z,-77
2019-03-21T01:32:03.195Z,-77
2019-03-21T01:33:03.180Z,-77
2019-03-21T01:34:03.453Z,-74
2019-03-21T01:35:03.174Z,-77
2019-03-21T01:36:03.361Z,-74
2019-03-21T01:37:03.438Z,-74
2019-03-21T01:38:03.177Z,-77
2019-03-21T01:39:03.202Z,-77
2019-03-21T01:40:03.160Z,-77
2019-03-21T01:41:03.159Z,-75
2019-03-21T01:42:03.191Z,-74
2019-03-21T01:43:03.125Z,-77
2019-03-21T01:44:03.146Z,-75
2019-03-21T01:45:03.160Z,-76
2019-03-21T01:46:03.219Z,-77
2019-03-21T01:47:03.141Z,-77
2019-03-21T01:48:03.181Z,-77
2019-03-21T01:49:03.143Z,-76
2019-03-21T01:50:03.130Z,-77
2019-03-21T01:51:03.147Z,-77
2019-03-21T01:52:03.157Z,-76
2019-03-21T01:53:03.164Z,-76
2019-03-21T01:54:03.119Z,-77
2019-03-21T01:55:03.123Z,-77
2019-03-21T01:56:03.187Z,-76
2019-03-21T01:57:03.136Z,-75
2019-03-21T01:58:03.212Z,-76
2019-03-21T01:59:03.345Z,-75
2019-03-21T02:00:03.199Z,-76
2019-03-21T02:01:03.134Z,-76
2019-03-21T02:02:03.154Z,-77
2019-03-21T02:03:03.166Z,-76
2019-03-21T02:04:03.102Z,-77
2019-03-21T02:05:03.151Z,-76
2019-03-21T02:06:03.109Z,-76
2019-03-21T02:07:03.102Z,-76
2019-03-21T02:08:03.125Z,-77
2019-03-21T02:09:03.141Z,-77
2019-03-21T02:10:03.144Z,-76
2019-03-21T02:11:03.156Z,-77
2019-03-21T02:12:03.167Z,-77
2019-03-21T02:13:03.140Z,-77
2019-03-21T02:14:03.110Z,-77
2019-03-21T02:15:03.130Z,-77
2019-03-21T02:16:03.208Z,-77
2019-03-21T02:17:03.139Z,-77
2019-03-21T02:18:03.119Z,-77
2019-03-21T02:19:03.128Z,-77
2019-03-21T02:20:03.362Z,-76
2019-03-21T02:21:03.203Z,-74
2019-03-21T02:22:03.099Z,-76
2019-03-21T02:23:03.215Z,-76
2019-03-21T02:24:03.090Z,-76
2019-03-21T02:25:03.119Z,-77
2019-03-21T02:26:03.134Z,-77
2019-03-21T02:27:03.078Z,-77
2019-03-21T02:28:03.137Z,-76
2019-03-21T02:29:03.161Z,-77
2019-03-21T02:30:03.196Z,-77
2019-03-21T02:31:03.151Z,-77
2019-03-21T02:32:03.113Z,-77
2019-03-21T02:33:03.153Z,-76
2019-03-21T02:34:03.186Z,-76
2019-03-21T02:35:03.144Z,-77
2019-03-21T02:36:03.187Z,-76
2019-03-21T02:37:03.150Z,-77
2019-03-21T02:38:03.132Z,-77
2019-03-21T02:39:03.115Z,-74
2019-03-21T02:40:03.345Z,-74
2019-03-21T02:41:03.108Z,-73
2019-03-21T02:42:03.127Z,-72
2019-03-21T02:43:03.164Z,-72
2019-03-21T02:44:03.151Z,-71
2019-03-21T02:45:10.515Z,-75
2019-03-21T02:46:03.262Z,-72
2019-03-21T02:47:03.110Z,-72
2019-03-21T02:48:03.158Z,-72
2019-03-21T02:49:03.130Z,-70
2019-03-21T02:50:03.146Z,-72
2019-03-21T02:51:03.114Z,-72
2019-03-21T02:52:03.095Z,-73
2019-03-21T02:53:03.082Z,-71
2019-03-21T02:54:03.225Z,-72
2019-03-21T02:55:03.078Z,-71
2019-03-21T02:56:03.065Z,-73
2019-03-21T02:57:03.166Z,-73
2019-03-21T02:58:03.125Z,-70
2019-03-21T02:59:03.128Z,-70
2019-03-21T03:00:03.237Z,-74
2019-03-21T03:01:03.072Z,-73
2019-03-21T03:02:03.039Z,-72
2019-03-21T03:03:03.088Z,-70
2019-03-21T03:04:03.067Z,-71
2019-03-21T03:05:03.024Z,-74
2019-03-21T03:06:03.046Z,-74
2019-03-21T03:07:03.124Z,-74
2019-03-21T03:08:03.065Z,-72
2019-03-21T03:09:03.150Z,-70
2019-03-21T03:10:03.091Z,-71
2019-03-21T03:11:03.069Z,-71
2019-03-21T03:12:03.041Z,-70
2019-03-21T03:13:03.950Z,-74
2019-03-21T03:14:05.259Z,-70
2019-03-21T03:15:03.173Z,-71
2019-03-21T03:16:03.162Z,-72
2019-03-21T03:17:03.091Z,-70
2019-03-21T03:18:03.058Z,-74
2019-03-21T03:19:03.097Z,-74
2019-03-21T03:20:03.107Z,-74
2019-03-21T03:21:03.092Z,-71
2019-03-21T03:22:03.141Z,-71
2019-03-21T03:23:03.145Z,-74
2019-03-21T03:24:03.044Z,-73
2019-03-21T03:25:03.211Z,-73
2019-03-21T03:26:03.123Z,-73
2019-03-21T03:27:03.201Z,-73
2019-03-21T03:28:03.944Z,-75
2019-03-21T03:29:03.075Z,-72
2019-03-21T03:30:03.303Z,-71
2019-03-21T03:31:03.391Z,-71
2019-03-21T03:32:03.163Z,-70
2019-03-21T03:33:03.198Z,-70
2019-03-21T03:34:03.128Z,-71
2019-03-21T03:35:03.174Z,-71
2019-03-21T03:36:03.144Z,-74
2019-03-21T03:37:03.026Z,-74
2019-03-21T03:38:03.059Z,-74
2019-03-21T03:39:03.034Z,-74
2019-03-21T03:40:03.032Z,-74
2019-03-21T03:41:03.031Z,-74
2019-03-21T03:42:09.162Z,-75
2019-03-21T03:43:03.046Z,-74
2019-03-21T03:44:03.031Z,-74
2019-03-21T03:45:03.081Z,-74
2019-03-21T03:46:03.182Z,-73
2019-03-21T03:47:02.971Z,-73
2019-03-21T03:48:03.018Z,-71
2019-03-21T03:49:03.890Z,-74
2019-03-21T03:50:03.062Z,-72
2019-03-21T03:51:02.979Z,-70
2019-03-21T03:52:03.102Z,-70
2019-03-21T03:53:03.178Z,-70
2019-03-21T03:54:03.081Z,-71
2019-03-21T03:55:03.162Z,-72
2019-03-21T03:56:02.992Z,-74
2019-03-21T03:57:03.011Z,-73
2019-03-21T03:58:02.986Z,-72
2019-03-21T03:59:03.059Z,-70
2019-03-21T04:00:03.064Z,-72
2019-03-21T04:01:03.156Z,-72
2019-03-21T04:02:02.962Z,-73
2019-03-21T04:03:03.030Z,-74
2019-03-21T04:04:03.025Z,-74
2019-03-21T04:05:03.066Z,-73
2019-03-21T04:06:03.025Z,-75
2019-03-21T04:07:02.984Z,-75
2019-03-21T04:08:03.012Z,-75
2019-03-21T04:09:02.988Z,-75
2019-03-21T04:10:02.917Z,-75
2019-03-21T04:11:02.990Z,-75
2019-03-21T04:12:02.958Z,-75
2019-03-21T04:13:03.010Z,-75
2019-03-21T04:14:02.965Z,-75
2019-03-21T04:15:02.967Z,-75
2019-03-21T04:16:02.976Z,-74
2019-03-21T04:17:02.933Z,-72
2019-03-21T04:18:03.092Z,-73
2019-03-21T04:19:02.970Z,-72
2019-03-21T04:20:02.959Z,-71
2019-03-21T04:21:03.029Z,-73
2019-03-21T04:22:02.989Z,-75
2019-03-21T04:23:02.996Z,-70
2019-03-21T04:24:02.964Z,-71
2019-03-21T04:25:02.994Z,-71
2019-03-21T04:26:02.994Z,-72
2019-03-21T04:27:02.958Z,-72
2019-03-21T04:28:03.019Z,-74
2019-03-21T04:29:03.006Z,-71
2019-03-21T04:30:02.921Z,-72
2019-03-21T04:31:03.146Z,-74
2019-03-21T04:32:02.973Z,-74
2019-03-21T04:33:02.989Z,-74
2019-03-21T04:34:02.908Z,-71
2019-03-21T04:35:02.901Z,-70
2019-03-21T04:36:02.931Z,-70
2019-03-21T04:37:02.947Z,-71
2019-03-21T04:38:02.872Z,-70
2019-03-21T04:39:02.898Z,-71
2019-03-21T04:40:02.931Z,-71
2019-03-21T04:41:02.965Z,-73
2019-03-21T04:42:02.943Z,-74
2019-03-21T04:43:02.900Z,-74
2019-03-21T04:44:03.780Z,-74
2019-03-21T04:45:02.886Z,-74
2019-03-21T04:46:04.322Z,-74
2019-03-21T04:47:02.878Z,-74
2019-03-21T04:48:02.923Z,-74
2019-03-21T04:49:02.858Z,-73
2019-03-21T04:50:02.875Z,-74
2019-03-21T04:51:02.888Z,-74
2019-03-21T04:52:03.189Z,-74
2019-03-21T04:53:02.873Z,-73
2019-03-21T04:54:02.877Z,-71
2019-03-21T04:55:02.885Z,-71
2019-03-21T04:56:02.840Z,-73
2019-03-21T04:57:02.843Z,-74
2019-03-21T04:58:02.852Z,-74
2019-03-21T04:59:02.840Z,-74
2019-03-21T05:00:04.514Z,-71
2019-03-21T05:01:02.904Z,-72
2019-03-21T05:02:02.915Z,-74
2019-03-21T05:03:02.867Z,-73
2019-03-21T05:04:02.842Z,-74
2019-03-21T05:05:02.974Z,-74
2019-03-21T05:06:02.920Z,-74
2019-03-21T05:07:02.871Z,-74
2019-03-21T05:08:02.874Z,-74
2019-03-21T05:09:02.871Z,-74
2019-03-21T05:10:02.880Z,-74
2019-03-21T05:11:03.825Z,-74
2019-03-21T05:12:02.836Z,-74
2019-03-21T05:13:03.114Z,-74
2019-03-21T05:14:02.851Z,-73
2019-03-21T05:15:02.878Z,-70
2019-03-21T05:16:15.394Z,-72
2019-03-21T05:17:02.870Z,-70
2019-03-21T05:18:02.835Z,-72
2019-03-21T05:19:02.904Z,-71
2019-03-21T05:20:02.911Z,-70
2019-03-21T05:21:02.879Z,-74
2019-03-21T05:22:02.852Z,-70
2019-03-21T05:23:02.859Z,-71
2019-03-21T05:24:02.819Z,-70
2019-03-21T05:25:02.820Z,-71
2019-03-21T05:26:04.594Z,-69
2019-03-21T05:27:02.814Z,-73
2019-03-21T05:28:02.832Z,-71
2019-03-21T05:29:02.805Z,-74
2019-03-21T05:30:03.711Z,-74
2019-03-21T05:31:02.790Z,-74
2019-03-21T05:32:04.242Z,-73
2019-03-21T05:33:02.887Z,-74
2019-03-21T05:34:03.090Z,-72
2019-03-21T05:35:02.809Z,-75
2019-03-21T05:36:02.804Z,-74
2019-03-21T05:37:02.818Z,-74
2019-03-21T05:38:02.787Z,-74
2019-03-21T05:39:02.850Z,-70
2019-03-21T05:40:03.319Z,-74
2019-03-21T05:41:02.816Z,-74
2019-03-21T05:42:02.786Z,-72
2019-03-21T05:43:02.850Z,-72
2019-03-21T05:44:02.784Z,-69
2019-03-21T05:45:02.768Z,-71
2019-03-21T05:46:02.776Z,-71
2019-03-21T05:47:02.773Z,-74
2019-03-21T05:48:02.810Z,-73
2019-03-21T05:49:02.745Z,-74
2019-03-21T05:50:02.790Z,-74
2019-03-21T05:51:02.815Z,-71
2019-03-21T05:52:02.810Z,-71
2019-03-21T05:53:02.781Z,-69
2019-03-21T05:54:02.876Z,-73
2019-03-21T05:55:02.765Z,-72
2019-03-21T05:56:02.976Z,-72
2019-03-21T05:57:03.001Z,-74
2019-03-21T05:58:02.812Z,-72
2019-03-21T05:59:02.798Z,-73
2019-03-21T06:00:02.763Z,-73
2019-03-21T06:01:02.773Z,-74
2019-03-21T06:02:02.879Z,-71
2019-03-21T06:03:02.746Z,-70
2019-03-21T06:04:03.142Z,-71
2019-03-21T06:05:02.739Z,-74
2019-03-21T06:06:02.817Z,-74
2019-03-21T06:07:02.736Z,-71
2019-03-21T06:08:02.771Z,-71
2019-03-21T06:09:02.794Z,-70
2019-03-21T06:10:02.731Z,-70
2019-03-21T06:11:02.729Z,-71
2019-03-21T06:12:02.776Z,-73
2019-03-21T06:13:02.723Z,-72
2019-03-21T06:14:02.822Z,-72
2019-03-21T06:15:02.796Z,-73
2019-03-21T06:16:02.760Z,-71
2019-03-21T06:17:02.752Z,-70
2019-03-21T06:18:02.839Z,-72
2019-03-21T06:19:03.722Z,-73
2019-03-21T06:20:04.798Z,-71
2019-03-21T06:21:02.774Z,-74
2019-03-21T06:22:02.740Z,-73
2019-03-21T06:23:02.758Z,-74
2019-03-21T06:24:02.767Z,-72
2019-03-21T06:25:02.758Z,-73
2019-03-21T06:26:02.747Z,-73
2019-03-21T06:27:15.264Z,-72
2019-03-21T06:28:02.807Z,-73
2019-03-21T06:29:02.728Z,-73
2019-03-21T06:30:02.805Z,-74
2019-03-21T06:31:02.751Z,-74
2019-03-21T06:32:02.779Z,-74
2019-03-21T06:33:02.785Z,-74
2019-03-21T06:34:02.830Z,-74
2019-03-21T06:35:02.980Z,-73
2019-03-21T06:36:02.712Z,-71
2019-03-21T06:37:02.725Z,-74
2019-03-21T06:38:02.777Z,-73
2019-03-21T06:39:02.776Z,-73
2019-03-21T06:40:03.933Z,-72
2019-03-21T06:41:02.883Z,-73
2019-03-21T06:42:09.045Z,-73
2019-03-21T06:43:05.683Z,-73
2019-03-21T06:44:02.715Z,-73
2019-03-21T06:45:02.749Z,-73
2019-03-21T06:46:02.699Z,-73
2019-03-21T06:47:02.809Z,-74
2019-03-21T06:48:02.766Z,-73
2019-03-21T06:49:03.638Z,-73
2019-03-21T06:50:02.731Z,-73
2019-03-21T06:51:02.702Z,-73
2019-03-21T06:52:02.730Z,-74
2019-03-21T06:53:03.752Z,-73
2019-03-21T06:54:02.713Z,-73
2019-03-21T06:55:02.719Z,-73
2019-03-21T06:56:02.733Z,-73
2019-03-21T06:57:03.252Z,-73
2019-03-21T06:58:02.750Z,-73
2019-03-21T06:59:02.771Z,-73
2019-03-21T07:00:02.705Z,-73
2019-03-21T07:01:02.939Z,-74
2019-03-21T07:02:02.715Z,-73
2019-03-21T07:03:02.718Z,-73
2019-03-21T07:04:07.996Z,-73
2019-03-21T07:05:02.693Z,-71
2019-03-21T07:06:02.647Z,-71
2019-03-21T07:07:08.981Z,-73
2019-03-21T07:08:02.736Z,-73
2019-03-21T07:09:02.662Z,-73
2019-03-21T07:10:02.771Z,-74
2019-03-21T07:11:02.680Z,-73
2019-03-21T07:12:02.845Z,-73
2019-03-21T07:13:02.691Z,-73
2019-03-21T07:14:02.717Z,-74
2019-03-21T07:15:04.885Z,-73
2019-03-21T07:16:02.719Z,-74
2019-03-21T07:17:02.689Z,-73
2019-03-21T07:18:02.656Z,-73
2019-03-21T07:19:02.650Z,-73
2019-03-21T07:20:02.706Z,-73
2019-03-21T07:21:02.667Z,-73
2019-03-21T07:22:02.699Z,-75
2019-03-21T07:23:02.879Z,-74
2019-03-21T07:24:02.694Z,-74
2019-03-21T07:25:02.645Z,-74
2019-03-21T07:26:02.648Z,-74
2019-03-21T07:27:02.728Z,-74
2019-03-21T07:28:02.641Z,-73
2019-03-21T07:29:02.642Z,-74
2019-03-21T07:30:02.702Z,-74
2019-03-21T07:31:02.673Z,-74
2019-03-21T07:32:02.656Z,-75
2019-03-21T07:33:02.628Z,-74
2019-03-21T07:34:02.605Z,-73
2019-03-21T07:35:02.613Z,-73
2019-03-21T07:36:02.631Z,-74
2019-03-21T07:37:02.723Z,-74
2019-03-21T07:38:02.621Z,-74
2019-03-21T07:39:02.610Z,-74
2019-03-21T07:40:02.695Z,-73
2019-03-21T07:41:02.634Z,-74
2019-03-21T07:42:02.656Z,-74
2019-03-21T07:43:02.625Z,-74
2019-03-21T07:44:02.639Z,-73
2019-03-21T07:45:02.645Z,-73
2019-03-21T07:46:02.602Z,-74
2019-03-21T07:47:13.778Z,-74
2019-03-21T07:48:05.759Z,-73
2019-03-21T07:49:02.623Z,-74
2019-03-21T07:50:02.643Z,-73
2019-03-21T07:51:02.702Z,-73
2019-03-21T07:52:02.714Z,-73
2019-03-21T07:53:02.623Z,-73
2019-03-21T07:54:02.662Z,-72
2019-03-21T07:55:02.614Z,-73
2019-03-21T07:56:02.594Z,-73
2019-03-21T07:57:02.691Z,-73
2019-03-21T07:58:02.578Z,-74
2019-03-21T07:59:03.533Z,-73
2019-03-21T08:00:02.588Z,-74
2019-03-21T08:01:03.493Z,-74
2019-03-21T08:02:02.580Z,-73
2019-03-21T08:03:02.644Z,-74
2019-03-21T08:04:03.923Z,-74
2019-03-21T08:05:03.840Z,-73
2019-03-21T08:06:02.955Z,-73
2019-03-21T08:07:02.673Z,-74
2019-03-21T08:08:02.643Z,-73
2019-03-21T08:09:02.571Z,-73
2019-03-21T08:10:02.565Z,-74
2019-03-21T08:11:02.576Z,-73
2019-03-21T08:12:02.572Z,-74
2019-03-21T08:13:03.449Z,-73
2019-03-21T08:14:03.653Z,-74
2019-03-21T08:15:03.689Z,-74
2019-03-21T08:16:02.566Z,-74
2019-03-21T08:17:09.086Z,-75
2019-03-21T08:18:02.628Z,-74
2019-03-21T08:19:03.138Z,-74
2019-03-21T08:20:02.559Z,-74
2019-03-21T08:21:02.575Z,-74
2019-03-21T08:22:02.583Z,-74
2019-03-21T08:23:02.595Z,-74
2019-03-21T08:24:02.738Z,-74
2019-03-21T08:25:02.556Z,-74
2019-03-21T08:26:02.714Z,-72
2019-03-21T08:27:02.541Z,-74
2019-03-21T08:28:02.678Z,-74
2019-03-21T08:29:02.582Z,-73
2019-03-21T08:30:02.533Z,-74
2019-03-21T08:31:02.543Z,-74
2019-03-21T08:32:03.433Z,-74
2019-03-21T08:33:03.643Z,-74
2019-03-21T08:34:02.666Z,-74
2019-03-21T08:35:04.817Z,-74
2019-03-21T08:36:02.551Z,-74
2019-03-21T08:37:02.558Z,-74
2019-03-21T08:38:02.573Z,-74
2019-03-21T08:39:02.543Z,-74
2019-03-21T08:40:02.530Z,-74
2019-03-21T08:41:02.501Z,-74
2019-03-21T08:42:02.520Z,-74
2019-03-21T08:43:02.586Z,-74
2019-03-21T08:44:02.623Z,-74
2019-03-21T08:45:02.510Z,-74
2019-03-21T08:46:02.507Z,-74
2019-03-21T08:47:02.568Z,-74
2019-03-21T08:48:02.523Z,-74
2019-03-21T08:49:02.508Z,-74
2019-03-21T08:50:02.539Z,-74
2019-03-21T08:51:09.176Z,-71
2019-03-21T08:52:02.573Z,-74
2019-03-21T08:53:02.516Z,-74
2019-03-21T08:54:02.546Z,-74
2019-03-21T08:55:02.549Z,-74
2019-03-21T08:56:02.529Z,-74
2019-03-21T08:57:02.601Z,-74
2019-03-21T08:58:02.516Z,-74
2019-03-21T08:59:02.521Z,-74
2019-03-21T09:00:02.566Z,-74
2019-03-21T09:01:02.501Z,-74
2019-03-21T09:02:02.523Z,-74
2019-03-21T09:03:02.482Z,-74
2019-03-21T09:04:02.508Z,-75
2019-03-21T09:05:02.567Z,-74
2019-03-21T09:06:02.505Z,-74
2019-03-21T09:07:02.584Z,-74
2019-03-21T09:08:02.500Z,-75
2019-03-21T09:09:02.552Z,-75
2019-03-21T09:10:02.575Z,-76
2019-03-21T09:11:02.470Z,-74
2019-03-21T09:12:02.515Z,-75
2019-03-21T09:13:02.508Z,-74
2019-03-21T09:14:02.532Z,-75
2019-03-21T09:15:02.477Z,-75
2019-03-21T09:16:02.483Z,-75
2019-03-21T09:17:02.497Z,-75
2019-03-21T09:18:02.499Z,-74
2019-03-21T09:19:02.627Z,-75
2019-03-21T09:20:02.511Z,-75
2019-03-21T09:21:02.928Z,-75
2019-03-21T09:22:02.528Z,-74
2019-03-21T09:23:02.561Z,-75
2019-03-21T09:24:02.478Z,-75
2019-03-21T09:25:05.270Z,-76
2019-03-21T09:26:02.531Z,-75
2019-03-21T09:27:02.624Z,-74
2019-03-21T09:28:03.488Z,-75
2019-03-21T09:29:02.543Z,-75
2019-03-21T09:30:02.504Z,-74
2019-03-21T09:31:02.470Z,-74
2019-03-21T09:32:02.510Z,-75
2019-03-21T09:33:02.503Z,-75
2019-03-21T09:34:02.468Z,-75
2019-03-21T09:35:02.509Z,-76
2019-03-21T09:36:02.781Z,-75
2019-03-21T09:37:04.661Z,-75
2019-03-21T09:38:02.867Z,-75
2019-03-21T09:39:02.442Z,-75
2019-03-21T09:40:02.567Z,-75
2019-03-21T09:41:02.444Z,-73
2019-03-21T09:42:02.680Z,-74
2019-03-21T09:43:03.688Z,-74
2019-03-21T09:44:02.446Z,-75
2019-03-21T09:45:02.418Z,-74
2019-03-21T09:46:03.403Z,-74
2019-03-21T09:47:02.492Z,-75
2019-03-21T09:48:02.463Z,-75
2019-03-21T09:49:02.456Z,-74
2019-03-21T09:50:02.429Z,-75
2019-03-21T09:51:03.328Z,-75
2019-03-21T09:52:02.401Z,-76
2019-03-21T09:53:02.421Z,-75
2019-03-21T09:54:10.310Z,-75
2019-03-21T09:55:02.469Z,-75
2019-03-21T09:56:02.459Z,-75
2019-03-21T09:57:03.086Z,-76
2019-03-21T09:58:02.789Z,-75
2019-03-21T09:59:02.594Z,-75
2019-03-21T10:00:02.497Z,-76
2019-03-21T10:01:02.564Z,-75
2019-03-21T10:02:02.421Z,-75
2019-03-21T10:03:02.622Z,-75
2019-03-21T10:04:02.447Z,-74
2019-03-21T10:05:02.532Z,-75
2019-03-21T10:06:02.415Z,-75
2019-03-21T10:07:02.467Z,-75
2019-03-21T10:08:02.454Z,-75
2019-03-21T10:09:02.380Z,-75
2019-03-21T10:10:02.406Z,-75
2019-03-21T10:11:02.503Z,-75
2019-03-21T10:12:02.428Z,-75
2019-03-21T10:13:02.481Z,-75
2019-03-21T10:14:02.399Z,-74
2019-03-21T10:15:02.394Z,-74
2019-03-21T10:16:02.426Z,-75
2019-03-21T10:17:02.419Z,-76
2019-03-21T10:18:02.420Z,-76
2019-03-21T10:19:02.585Z,-75
2019-03-21T10:20:02.402Z,-76
2019-03-21T10:21:02.382Z,-75
2019-03-21T10:22:02.408Z,-76
2019-03-21T10:23:02.420Z,-74
2019-03-21T10:24:02.448Z,-75
2019-03-21T10:25:02.425Z,-76
2019-03-21T10:26:02.377Z,-75
2019-03-21T10:27:02.382Z,-76
2019-03-21T10:28:02.440Z,-74
2019-03-21T10:29:02.446Z,-76
2019-03-21T10:30:02.380Z,-76
2019-03-21T10:31:02.390Z,-75
2019-03-21T10:32:14.977Z,-73
2019-03-21T10:33:02.380Z,-76
2019-03-21T10:34:02.398Z,-76
2019-03-21T10:35:02.378Z,-76
2019-03-21T10:36:02.378Z,-76
2019-03-21T10:37:02.409Z,-76
2019-03-21T10:38:02.366Z,-75
2019-03-21T10:39:02.396Z,-75
2019-03-21T10:40:02.418Z,-75
2019-03-21T10:41:02.410Z,-76
2019-03-21T10:42:02.413Z,-76
2019-03-21T10:43:02.372Z,-75
2019-03-21T10:44:02.333Z,-72
2019-03-21T10:45:02.450Z,-74
2019-03-21T10:46:02.406Z,-74
2019-03-21T10:47:02.451Z,-75
2019-03-21T10:48:02.335Z,-75
2019-03-21T10:49:02.402Z,-75
2019-03-21T10:50:02.399Z,-74
2019-03-21T10:51:02.403Z,-75
2019-03-21T10:52:02.363Z,-74
2019-03-21T10:53:02.389Z,-75
2019-03-21T10:54:02.351Z,-75
2019-03-21T10:55:02.325Z,-74
2019-03-21T10:56:02.392Z,-75
2019-03-21T10:57:02.371Z,-74
2019-03-21T10:58:02.345Z,-75
2019-03-21T10:59:02.348Z,-75
2019-03-21T11:00:02.845Z,-75
2019-03-21T11:01:02.326Z,-76
2019-03-21T11:01:16.002Z,-74
2019-03-21T11:02:15.965Z,-75
2019-03-21T11:03:16.005Z,-75
2019-03-21T11:04:16.034Z,-74
2019-03-21T11:05:15.989Z,-75
2019-03-21T11:06:15.940Z,-75
2019-03-21T11:07:15.942Z,-74
2019-03-21T11:08:15.896Z,-74
2019-03-21T11:09:15.935Z,-75
2019-03-21T11:10:15.917Z,-75
2019-03-21T11:11:15.927Z,-74
2019-03-21T11:12:15.907Z,-75
2019-03-21T11:13:15.945Z,-74
2019-03-21T11:14:15.928Z,-75
2019-03-21T11:15:15.950Z,-74
2019-03-21T11:16:15.936Z,-74
2019-03-21T11:17:15.960Z,-75
2019-03-21T11:18:15.913Z,-74
2019-03-21T11:19:16.014Z,-75
2019-03-21T11:20:16.000Z,-74
2019-03-21T11:21:15.894Z,-75
2019-03-21T11:22:15.927Z,-75
2019-03-21T11:23:16.114Z,-75
2019-03-21T11:24:16.155Z,-75
2019-03-21T11:25:15.959Z,-75
2019-03-21T11:26:16.056Z,-75
2019-03-21T11:27:16.001Z,-75
2019-03-21T11:28:18.151Z,-75
2019-03-21T11:29:15.945Z,-75
2019-03-21T11:30:16.736Z,-75
2019-03-21T11:31:15.903Z,-74
2019-03-21T11:32:15.929Z,-75
2019-03-21T11:33:15.968Z,-73
2019-03-21T11:34:15.880Z,-74
2019-03-21T11:35:15.902Z,-75
2019-03-21T11:36:15.903Z,-75
2019-03-21T11:37:15.885Z,-75
2019-03-21T11:38:15.985Z,-75
2019-03-21T11:39:15.872Z,-74
2019-03-21T11:40:15.968Z,-75
2019-03-21T11:41:15.961Z,-75
2019-03-21T11:42:15.966Z,-75
2019-03-21T11:43:16.038Z,-76
2019-03-21T11:44:16.006Z,-75
2019-03-21T11:45:16.007Z,-74
2019-03-21T11:46:16.256Z,-74
2019-03-21T11:47:15.997Z,-74
2019-03-21T11:48:15.964Z,-75
2019-03-21T11:49:15.983Z,-74
2019-03-21T11:50:16.034Z,-74
2019-03-21T11:51:16.007Z,-74
2019-03-21T11:52:19.246Z,-75
2019-03-21T11:53:15.991Z,-76
2019-03-21T11:54:15.870Z,-75
2019-03-21T11:55:15.925Z,-75
2019-03-21T11:56:16.023Z,-76
2019-03-21T11:57:15.877Z,-76
2019-03-21T11:58:18.263Z,-75
2019-03-21T11:59:15.884Z,-76
2019-03-21T12:00:15.860Z,-76
2019-03-21T12:01:17.075Z,-76
2019-03-21T12:02:27.818Z,-76
2019-03-21T12:03:15.995Z,-76
2019-03-21T12:04:15.923Z,-74
2019-03-21T12:05:15.910Z,-74
2019-03-21T12:06:15.855Z,-76
2019-03-21T12:07:15.839Z,-74
2019-03-21T12:08:16.114Z,-75
2019-03-21T12:09:15.881Z,-76
2019-03-21T12:10:15.838Z,-76
2019-03-21T12:11:15.848Z,-75
2019-03-21T12:12:15.847Z,-75
2019-03-21T12:13:15.833Z,-76
2019-03-21T12:14:15.905Z,-74
2019-03-21T12:15:15.925Z,-75
2019-03-21T12:16:15.968Z,-75
2019-03-21T12:17:15.829Z,-75
2019-03-21T12:18:15.870Z,-75
2019-03-21T12:19:15.907Z,-75
2019-03-21T12:20:15.833Z,-75
2019-03-21T12:21:15.804Z,-74
2019-03-21T12:22:15.825Z,-74
2019-03-21T12:23:15.830Z,-75
2019-03-21T12:24:15.872Z,-75
2019-03-21T12:25:15.800Z,-75
2019-03-21T12:26:15.846Z,-75
2019-03-21T12:27:15.859Z,-75
2019-03-21T12:28:15.849Z,-75
2019-03-21T12:29:15.806Z,-75
2019-03-21T12:30:15.842Z,-75
2019-03-21T12:31:15.829Z,-75
2019-03-21T12:32:15.803Z,-76
2019-03-21T12:33:15.863Z,-76
2019-03-21T12:34:15.810Z,-75
2019-03-21T12:35:15.836Z,-74
2019-03-21T12:36:15.833Z,-76
2019-03-21T12:37:17.272Z,-76
2019-03-21T12:38:15.829Z,-74
2019-03-21T12:39:15.844Z,-77
2019-03-21T12:40:15.779Z,-77
2019-03-21T12:41:15.842Z,-76
2019-03-21T12:42:15.783Z,-76
2019-03-21T12:43:15.819Z,-77
2019-03-21T12:44:15.843Z,-77
2019-03-21T12:45:15.842Z,-76
2019-03-21T12:46:15.924Z,-76
2019-03-21T12:47:15.829Z,-76
2019-03-21T12:48:15.785Z,-77
2019-03-21T12:49:15.843Z,-76
2019-03-21T12:50:15.826Z,-76
2019-03-21T12:51:15.875Z,-77
2019-03-21T12:52:15.888Z,-76
2019-03-21T12:53:15.826Z,-77
2019-03-21T12:54:15.828Z,-76
2019-03-21T12:55:15.761Z,-75
2019-03-21T12:56:15.870Z,-77
2019-03-21T12:57:15.845Z,-77
2019-03-21T12:58:15.774Z,-76
2019-03-21T12:59:15.781Z,-77
2019-03-21T13:00:15.839Z,-77
2019-03-21T13:01:15.785Z,-76
2019-03-21T13:02:15.794Z,-77
2019-03-21T13:03:15.842Z,-77
2019-03-21T13:04:15.807Z,-77
2019-03-21T13:05:15.798Z,-76
2019-03-21T13:06:15.845Z,-76
2019-03-21T13:07:21.077Z,-77
2019-03-21T13:08:17.311Z,-77
2019-03-21T13:09:15.801Z,-75
2019-03-21T13:10:15.791Z,-76
2019-03-21T13:11:15.867Z,-77
2019-03-21T13:12:15.809Z,-76
2019-03-21T13:13:15.916Z,-77
2019-03-21T13:14:16.040Z,-77
2019-03-21T13:15:15.828Z,-77
2019-03-21T13:16:15.749Z,-77
2019-03-21T13:17:15.914Z,-75
2019-03-21T13:18:15.759Z,-76
2019-03-21T13:19:15.791Z,-76
2019-03-21T13:20:15.799Z,-77
2019-03-21T13:21:16.016Z,-76
2019-03-21T13:22:16.010Z,-76
2019-03-21T13:23:15.794Z,-76
2019-03-21T13:24:19.960Z,-77
2019-03-21T13:25:15.747Z,-77
2019-03-21T13:26:15.763Z,-77
2019-03-21T13:27:15.803Z,-77
2019-03-21T13:28:15.772Z,-77
2019-03-21T13:29:15.741Z,-77
2019-03-21T13:30:15.742Z,-76
2019-03-21T13:31:15.794Z,-77
2019-03-21T13:32:15.756Z,-76
2019-03-21T13:33:15.802Z,-77
2019-03-21T13:34:15.791Z,-77
2019-03-21T13:35:15.801Z,-75
2019-03-21T13:36:15.724Z,-76
2019-03-21T13:37:15.755Z,-77
2019-03-21T13:38:15.732Z,-76
2019-03-21T13:39:15.771Z,-78
2019-03-21T13:40:15.746Z,-77
2019-03-21T13:41:15.786Z,-76
2019-03-21T13:42:15.742Z,-77
2019-03-21T13:43:15.802Z,-76
2019-03-21T13:44:15.707Z,-77
2019-03-21T13:45:15.723Z,-78